Change the Weather History Date:

Saturday, May 25, 2013

  Actual Average Record
Temperature  
Mean Temperature 53 °F -  
Max Temperature 61 °F 65 °F 88 °F (1977)
Min Temperature 45 °F 47 °F 32 °F (1992)
Degree Days  
Heating Degree Days 12    
Growing Degree Days 3 (Base 50)    
Moisture  
Dew Point 31 °F    
Average Humidity 45    
Maximum Humidity 70    
Minimum Humidity 29    
Precipitation  
Precipitation 0.00 in - - ()
Sea Level Pressure  
Sea Level Pressure 30.36 in    
Wind  
Wind Speed 6 mph (ESE)    
Max Wind Speed 10 mph    
Max Gust Speed 16 mph    
Visibility 10 miles    
Events      
Averages and records for this station are not official NWS values.
T = Trace of Precipitation, MM = Missing Value Source: NWS Daily Summary

Daily Weather History Graph

Daily Weather History Graph

Search for Another Location

Airport or City:

Trip Planner

Search our weather history database for the weather conditions in past years. The results will help you decide how hot, cold, wet, or windy it might be!

Date:

Astronomy

May. 25, 2013 Rise Set
Actual Time 5:21 AM CDT 8:22 PM CDT
Civil Twilight 4:47 AM CDT 8:57 PM CDT
Nautical Twilight 4:03 AM CDT 9:40 PM CDT
Astronomical Twilight 3:11 AM CDT 10:33 PM CDT
Moon 9:10 PM CDT (5/25) 5:48 AM CDT (5/25)
Length of Visible Light 16h 10m
Length of Day
15h 01m
Full, 100% of the Moon is Illuminated
May 25
Full
May 31
Last Quarter
Jun 8
New
Jun 16
First Quarter
Jun 23
Full

Hourly Weather History & Observations

Time (CDT) Temp. Windchill Dew Point Humidity Pressure Visibility Wind Dir Wind Speed Gust Speed Precip Events Conditions
12:15 AM 45.0 °F 42.6 °F 35.8 °F 70% 30.37 in 10.0 mi ESE 4.6 mph - N/A   Clear
12:35 AM 45.5 °F 42.5 °F 33.6 °F 63% 30.35 in 10.0 mi ESE 5.8 mph - N/A   Clear
12:55 AM 45.7 °F 42.7 °F 31.6 °F 58% 30.34 in 10.0 mi ESE 5.8 mph - N/A   Clear
1:15 AM 46.0 °F 43.1 °F 30.9 °F 56% 30.33 in 10.0 mi SE 5.8 mph - N/A   Clear
1:35 AM 46.2 °F 43.3 °F 30.0 °F 53% 30.33 in 10.0 mi ESE 5.8 mph - N/A   Clear
1:55 AM 46.0 °F 44.8 °F 31.6 °F 57% 30.33 in 10.0 mi ESE 3.5 mph - N/A   Clear
2:15 AM 46.0 °F - 33.3 °F 61% 30.34 in 10.0 mi Calm Calm - N/A   Clear
2:35 AM 45.9 °F - 32.9 °F 61% 30.35 in 10.0 mi Calm Calm - N/A   Clear
2:55 AM 45.7 °F - 35.2 °F 67% 30.36 in 10.0 mi Calm Calm - N/A   Clear
3:15 AM 45.3 °F - 35.1 °F 67% 30.36 in 10.0 mi Calm Calm - N/A   Clear
3:35 AM 45.5 °F - 34.0 °F 64% 30.36 in 10.0 mi Calm Calm - N/A   Clear
3:55 AM 45.9 °F 43.6 °F 33.4 °F 62% 30.35 in 10.0 mi East 4.6 mph - N/A   Clear
4:15 AM 45.9 °F 42.9 °F 32.7 °F 60% 30.35 in 10.0 mi East 5.8 mph - N/A   Clear
4:35 AM 46.8 °F - 29.3 °F 51% 30.36 in 10.0 mi ESE 5.8 mph - N/A   Clear
4:55 AM 46.6 °F - 31.3 °F 55% 30.35 in 10.0 mi East 5.8 mph - N/A   Clear
5:15 AM 46.9 °F - 30.4 °F 53% 30.36 in 10.0 mi East 5.8 mph - N/A   Clear
5:35 AM 46.6 °F - 31.8 °F 56% 30.35 in 10.0 mi East 4.6 mph - N/A   Clear
5:55 AM 47.8 °F - 29.7 °F 49% 30.37 in 10.0 mi East 4.6 mph - N/A   Clear
6:15 AM 47.8 °F - 29.7 °F 49% 30.38 in 10.0 mi East 4.6 mph - N/A   Clear
6:35 AM 47.7 °F - 31.5 °F 53% 30.40 in 10.0 mi SE 3.5 mph - N/A   Scattered Clouds
6:55 AM 48.7 °F - 32.0 °F 52% 30.40 in 10.0 mi SE 4.6 mph - N/A   Clear
7:15 AM 50.0 °F - 29.1 °F 45% 30.41 in 10.0 mi South 4.6 mph - N/A   Clear
7:35 AM 50.0 °F - 30.2 °F 47% 30.41 in 10.0 mi ESE 4.6 mph - N/A   Clear
7:55 AM 49.8 °F - 30.7 °F 48% 30.40 in 10.0 mi SE 4.6 mph - N/A   Clear
8:15 AM 51.3 °F - 32.4 °F 48% 30.40 in 10.0 mi East 6.9 mph - N/A   Clear
8:35 AM 52.0 °F - 33.1 °F 49% 30.41 in 10.0 mi ESE 6.9 mph - N/A   Clear
8:55 AM 52.0 °F - 32.9 °F 48% 30.41 in 10.0 mi SSE 6.9 mph - N/A   Mostly Cloudy
9:15 AM 52.3 °F - 32.2 °F 46% 30.41 in 10.0 mi East 6.9 mph - N/A   Overcast
9:35 AM 52.7 °F - 33.1 °F 47% 30.41 in 10.0 mi East 6.9 mph - N/A   Overcast
9:55 AM 53.2 °F - 33.4 °F 47% 30.41 in 10.0 mi ESE 4.6 mph - N/A   Overcast
10:15 AM 53.2 °F - 29.8 °F 41% 30.40 in 10.0 mi East 9.2 mph - N/A   Overcast
10:35 AM 53.4 °F - 32.5 °F 45% 30.41 in 10.0 mi East 6.9 mph - N/A   Overcast
10:55 AM 54.5 °F - 32.2 °F 43% 30.40 in 10.0 mi East 10.4 mph - N/A   Overcast
11:15 AM 54.9 °F - 30.7 °F 40% 30.39 in 10.0 mi East 10.4 mph - N/A   Overcast
11:35 AM 55.4 °F - 32.0 °F 41% 30.39 in 10.0 mi East 9.2 mph - N/A   Overcast
11:55 AM 56.5 °F - 31.5 °F 39% 30.39 in 10.0 mi East 10.4 mph - N/A   Overcast
12:15 PM 58.5 °F - 32.2 °F 37% 30.38 in 10.0 mi ESE 10.4 mph - N/A   Scattered Clouds
12:35 PM 59.2 °F - 31.1 °F 35% 30.38 in 10.0 mi SE 10.4 mph 16.1 mph N/A   Mostly Cloudy
12:55 PM 59.4 °F - 31.1 °F 34% 30.37 in 10.0 mi ESE 9.2 mph - N/A   Scattered Clouds
1:15 PM 59.4 °F - 30.0 °F 33% 30.36 in 10.0 mi East 9.2 mph 16.1 mph N/A   Clear
1:35 PM 59.9 °F - 30.7 °F 33% 30.35 in 10.0 mi SE 10.4 mph - N/A   Clear
1:55 PM 60.4 °F - 31.8 °F 34% 30.34 in 10.0 mi East 8.1 mph - N/A   Clear
2:15 PM 60.3 °F - 30.7 °F 33% 30.34 in 10.0 mi East 10.4 mph - N/A   Clear
2:35 PM 60.4 °F - 31.6 °F 34% 30.34 in 10.0 mi East 10.4 mph - N/A   Clear
2:55 PM 61.0 °F - 31.6 °F 33% 30.35 in 10.0 mi ESE 9.2 mph - N/A   Clear
3:15 PM 60.1 °F - 30.2 °F 32% 30.35 in 10.0 mi ESE 9.2 mph - N/A   Clear
3:35 PM 59.5 °F - 29.1 °F 32% 30.35 in 10.0 mi SE 9.2 mph - N/A   Clear
3:55 PM 60.1 °F - 31.1 °F 33% 30.35 in 10.0 mi ESE 5.8 mph - N/A   Clear
4:15 PM 61.0 °F - 30.0 °F 31% 30.35 in 10.0 mi ESE 8.1 mph - N/A   Clear
4:35 PM 61.0 °F - 28.6 °F 29% 30.34 in 10.0 mi ESE 6.9 mph - N/A   Clear
4:55 PM 59.7 °F - 29.8 °F 32% 30.34 in 10.0 mi ESE 5.8 mph - N/A   Clear
5:15 PM 59.5 °F - 30.2 °F 33% 30.34 in 10.0 mi East 8.1 mph - N/A   Mostly Cloudy
5:35 PM 59.2 °F - 28.0 °F 31% 30.34 in 10.0 mi ESE 5.8 mph - N/A   Overcast
5:55 PM 59.9 °F - 30.9 °F 33% 30.33 in 10.0 mi East 8.1 mph - N/A   Mostly Cloudy
6:15 PM 59.7 °F - 29.7 °F 32% 30.32 in 10.0 mi East 8.1 mph - N/A   Scattered Clouds
6:35 PM 58.6 °F - 29.8 °F 34% 30.31 in 10.0 mi East 9.2 mph - N/A   Clear
6:55 PM 57.2 °F - 30.9 °F 37% 30.31 in 10.0 mi East 5.8 mph - N/A   Clear
7:15 PM 58.3 °F - 31.1 °F 36% 30.31 in 10.0 mi East 6.9 mph - N/A   Clear
7:35 PM 57.4 °F - 30.0 °F 35% 30.32 in 10.0 mi East 5.8 mph - N/A   Clear
7:55 PM 55.9 °F - 29.5 °F 36% 30.32 in 10.0 mi East 4.6 mph - N/A   Clear
8:15 PM 53.8 °F - 31.6 °F 43% 30.32 in 10.0 mi East 4.6 mph - N/A   Scattered Clouds
8:35 PM 53.1 °F - 30.2 °F 42% 30.32 in 10.0 mi ENE 3.5 mph - N/A   Scattered Clouds
8:55 PM 52.7 °F - 26.6 °F 36% 30.32 in 10.0 mi ENE 4.6 mph - N/A   Clear
9:15 PM 52.0 °F - 26.2 °F 37% 30.32 in 10.0 mi ENE 5.8 mph - N/A   Clear
9:35 PM 51.4 °F - 25.7 °F 37% 30.33 in 10.0 mi ENE 5.8 mph - N/A   Clear
9:55 PM 50.9 °F - 27.7 °F 41% 30.33 in 10.0 mi East 4.6 mph - N/A   Mostly Cloudy
10:15 PM 49.3 °F - 30.9 °F 49% 30.34 in 10.0 mi ESE 4.6 mph - N/A   Scattered Clouds
10:35 PM 49.1 °F - 32.5 °F 53% 30.34 in 10.0 mi East 5.8 mph - N/A   Clear
10:55 PM 48.0 °F - 34.3 °F 59% 30.33 in 10.0 mi East 3.5 mph - N/A   Clear
11:15 PM 48.4 °F - 32.9 °F 55% 30.33 in 10.0 mi East 4.6 mph - N/A   Clear
11:35 PM 47.8 °F - 32.7 °F 56% 30.32 in 10.0 mi East 5.8 mph - N/A   Clear
11:55 PM 47.3 °F - 32.7 °F 57% 30.32 in 10.0 mi East 4.6 mph - N/A   Clear